Time;durP1;ratioP1;P1;durP2;ratioP2;P2;SDS_P1;SDS_P2;PMS_P1;PMS_P2;Temp;Humidity;BMP_temperature;BMP_pressure;BME280_temperature;BME280_humidity;BME280_pressure;Samples;Min_cycle;Max_cycle;Signal;HPM_P1;HPM_P2
2022/11/14 00:00:01;;;;;;;36.95;20.17;;;;;;;;;;5094625;28;20196;-66
2022/11/14 00:02:29;;;;;;;36.35;22.20;;;;;;;;;;5094975;28;20203;-66
2022/11/14 00:04:56;;;;;;;34.63;21.13;;;;;;;;;;5095089;28;20199;-66
2022/11/14 00:07:23;;;;;;;34.65;19.35;;;;;;;;;;5094658;28;20645;-65
2022/11/14 00:09:50;;;;;;;39.97;21.23;;;;;;;;;;5094756;28;20203;-66
2022/11/14 00:12:17;;;;;;;38.25;22.70;;;;;;;;;;5094480;28;20199;-66
2022/11/14 00:14:44;;;;;;;29.67;18.65;;;;;;;;;;5094651;28;20288;-66
2022/11/14 00:17:13;;;;;;;35.88;21.63;;;;;;;;;;5094373;28;20197;-65
2022/11/14 00:19:40;;;;;;;37.83;21.85;;;;;;;;;;5094572;28;20673;-65
2022/11/14 00:22:07;;;;;;;35.28;20.15;;;;;;;;;;5094773;28;20200;-65
2022/11/14 00:24:35;;;;;;;35.40;21.38;;;;;;;;;;5094392;28;20203;-66
2022/11/14 00:27:02;;;;;;;34.15;19.58;;;;;;;;;;5095120;28;20240;-65
2022/11/14 00:29:29;;;;;;;35.50;20.50;;;;;;;;;;5094450;28;20193;-65
2022/11/14 00:31:56;;;;;;;37.03;20.30;;;;;;;;;;5094019;28;20193;-65
2022/11/14 00:34:25;;;;;;;33.50;20.55;;;;;;;;;;5094030;28;20219;-65
2022/11/14 00:36:52;;;;;;;35.53;20.88;;;;;;;;;;5094279;28;20197;-65
2022/11/14 00:39:19;;;;;;;34.58;19.63;;;;;;;;;;5094544;28;20203;-65
2022/11/14 00:41:46;;;;;;;31.50;19.77;;;;;;;;;;5094022;28;21816;-65
2022/11/14 00:44:13;;;;;;;33.17;19.80;;;;;;;;;;5094525;28;20195;-66
2022/11/14 00:46:41;;;;;;;35.47;20.98;;;;;;;;;;5094308;28;20199;-65
2022/11/14 00:49:08;;;;;;;33.42;20.85;;;;;;;;;;5094225;28;20198;-65
2022/11/14 00:51:36;;;;;;;42.17;21.25;;;;;;;;;;5093724;28;20218;-66
2022/11/14 00:54:04;;;;;;;38.47;20.92;;;;;;;;;;5104601;28;20212;-65
2022/11/14 00:56:31;;;;;;;32.78;19.58;;;;;;;;;;5114508;28;20201;-65
2022/11/14 00:58:58;;;;;;;33.78;19.77;;;;;;;;;;5114062;28;20290;-65
2022/11/14 01:01:26;;;;;;;35.33;19.95;;;;;;;;;;5114207;28;20207;-65
2022/11/14 01:03:53;;;;;;;32.65;20.70;;;;;;;;;;5114094;28;20210;-65
2022/11/14 01:06:20;;;;;;;35.88;20.10;;;;;;;;;;5114177;28;20204;-66
2022/11/14 01:08:50;;;;;;;34.95;21.10;;;;;;;;;;5113854;28;20191;-65
2022/11/14 01:11:18;;;;;;;38.42;21.30;;;;;;;;;;5114031;28;20544;-65
2022/11/14 01:13:46;;;;;;;36.05;21.42;;;;;;;;;;5113667;28;20224;-65
2022/11/14 01:16:13;;;;;;;40.08;21.27;;;;;;;;;;5114360;28;20198;-65
2022/11/14 01:18:41;;;;;;;35.25;21.33;;;;;;;;;;5113729;28;20655;-65
2022/11/14 01:21:08;;;;;;;35.70;22.13;;;;;;;;;;5113946;28;20205;-65
2022/11/14 01:23:36;;;;;;;38.85;22.13;;;;;;;;;;5113648;28;20204;-65
2022/11/14 01:26:05;;;;;;;41.67;22.40;;;;;;;;;;5113873;28;20237;-65
2022/11/14 01:28:32;;;;;;;37.75;21.20;;;;;;;;;;5113665;28;20200;-65
2022/11/14 01:31:07;;;;;;;35.88;20.50;;;;;;;;;;5113820;28;20196;-65
2022/11/14 01:33:34;;;;;;;36.67;21.88;;;;;;;;;;5113583;28;20206;-66
2022/11/14 01:36:01;;;;;;;38.78;21.60;;;;;;;;;;5113501;28;20194;-66
2022/11/14 01:38:29;;;;;;;35.35;20.38;;;;;;;;;;5113897;28;20225;-66
2022/11/14 01:40:56;;;;;;;33.63;20.50;;;;;;;;;;5114082;28;20192;-66
2022/11/14 01:43:31;;;;;;;36.42;22.02;;;;;;;;;;5114417;28;20235;-65
2022/11/14 01:46:00;;;;;;;39.67;21.75;;;;;;;;;;5113882;28;20192;-65
2022/11/14 01:48:30;;;;;;;37.03;21.95;;;;;;;;;;5113886;28;20198;-65
2022/11/14 01:50:58;;;;;;;41.33;23.23;;;;;;;;;;5113317;28;20191;-65
2022/11/14 01:53:26;;;;;;;40.70;22.83;;;;;;;;;;5113622;28;20224;-66
2022/11/14 01:55:55;;;;;;;39.95;22.50;;;;;;;;;;5114352;28;20192;-65
2022/11/14 01:58:23;;;;;;;40.88;22.92;;;;;;;;;;5114012;28;20196;-66
2022/11/14 02:00:51;;;;;;;40.28;22.60;;;;;;;;;;5113283;28;20653;-66
2022/11/14 02:03:19;;;;;;;38.88;22.10;;;;;;;;;;5113593;28;20199;-65
2022/11/14 02:05:47;;;;;;;41.90;22.77;;;;;;;;;;5113631;28;20212;-66
2022/11/14 02:08:15;;;;;;;38.78;22.65;;;;;;;;;;5113179;28;20735;-65
2022/11/14 02:10:42;;;;;;;39.30;22.95;;;;;;;;;;5113531;28;20190;-66
2022/11/14 02:13:09;;;;;;;42.90;22.10;;;;;;;;;;5113583;28;20218;-65
2022/11/14 02:15:37;;;;;;;37.47;22.42;;;;;;;;;;5116454;28;20218;-65
2022/11/14 02:18:06;;;;;;;40.72;22.05;;;;;;;;;;5117363;28;20201;-66
2022/11/14 02:20:36;;;;;;;36.63;21.30;;;;;;;;;;5117940;28;20202;-65
2022/11/14 02:23:03;;;;;;;36.72;23.42;;;;;;;;;;5117342;28;20185;-65
2022/11/14 02:25:30;;;;;;;42.25;21.45;;;;;;;;;;5117234;28;20195;-65
2022/11/14 02:27:59;;;;;;;38.97;24.70;;;;;;;;;;5116803;28;20214;-65
2022/11/14 02:30:26;;;;;;;36.88;21.65;;;;;;;;;;5116854;28;20636;-65
2022/11/14 02:32:53;;;;;;;30.33;20.88;;;;;;;;;;5116951;28;20195;-65
2022/11/14 02:35:20;;;;;;;33.50;19.70;;;;;;;;;;5117141;28;20200;-66
2022/11/14 02:37:49;;;;;;;34.08;20.88;;;;;;;;;;5117154;28;20195;-66
2022/11/14 02:40:16;;;;;;;36.10;21.10;;;;;;;;;;5116687;28;20199;-65
2022/11/14 02:42:43;;;;;;;35.45;21.42;;;;;;;;;;5116881;28;20689;-66
2022/11/14 02:45:11;;;;;;;32.58;21.90;;;;;;;;;;5116619;28;20200;-65
2022/11/14 02:47:38;;;;;;;38.60;21.80;;;;;;;;;;5116793;28;20195;-66
2022/11/14 02:50:06;;;;;;;34.58;20.40;;;;;;;;;;5116436;28;20200;-65
2022/11/14 02:52:33;;;;;;;33.58;20.30;;;;;;;;;;5116389;28;20198;-66
2022/11/14 02:55:01;;;;;;;37.90;22.00;;;;;;;;;;5116692;28;20545;-66
2022/11/14 02:57:28;;;;;;;31.23;19.73;;;;;;;;;;5116666;28;20195;-66
2022/11/14 02:59:56;;;;;;;36.63;20.83;;;;;;;;;;5116578;28;20196;-66
2022/11/14 03:02:23;;;;;;;34.95;20.48;;;;;;;;;;5116451;28;20199;-66
2022/11/14 03:04:50;;;;;;;32.03;20.63;;;;;;;;;;5116217;28;20203;-65
2022/11/14 03:07:17;;;;;;;40.58;22.02;;;;;;;;;;5116083;28;20682;-66
2022/11/14 03:09:44;;;;;;;38.25;20.95;;;;;;;;;;5116684;28;20195;-65
2022/11/14 03:12:16;;;;;;;37.05;21.95;;;;;;;;;;5116543;28;20544;-66
2022/11/14 03:14:44;;;;;;;37.13;21.35;;;;;;;;;;5116284;28;20202;-65
2022/11/14 03:17:11;;;;;;;38.55;22.27;;;;;;;;;;5116235;28;20199;-66
2022/11/14 03:19:38;;;;;;;44.20;23.85;;;;;;;;;;5116246;28;20196;-65
2022/11/14 03:22:05;;;;;;;43.15;23.17;;;;;;;;;;5116050;28;20201;-65
2022/11/14 03:24:32;;;;;;;36.25;22.35;;;;;;;;;;5115863;28;20212;-65
2022/11/14 03:26:59;;;;;;;42.45;23.10;;;;;;;;;;5115623;28;20194;-65
2022/11/14 03:29:28;;;;;;;38.15;21.55;;;;;;;;;;5115961;28;20646;-65
2022/11/14 03:31:55;;;;;;;39.67;21.90;;;;;;;;;;5115953;28;20202;-65
2022/11/14 03:34:22;;;;;;;37.40;23.10;;;;;;;;;;5115814;28;20220;-65
2022/11/14 03:36:49;;;;;;;40.72;22.15;;;;;;;;;;5115822;28;20196;-65
2022/11/14 03:39:17;;;;;;;43.40;24.88;;;;;;;;;;5115762;28;20554;-65
2022/11/14 03:41:44;;;;;;;40.53;22.58;;;;;;;;;;5115763;28;20215;-65
2022/11/14 03:44:11;;;;;;;39.78;23.25;;;;;;;;;;5115851;28;20190;-66
2022/11/14 03:46:40;;;;;;;41.78;21.35;;;;;;;;;;5115756;28;20196;-65
2022/11/14 03:49:07;;;;;;;42.92;24.27;;;;;;;;;;5115264;28;20203;-66
2022/11/14 03:51:34;;;;;;;38.22;23.00;;;;;;;;;;5115623;28;20195;-65
2022/11/14 03:54:01;;;;;;;40.00;22.15;;;;;;;;;;5115556;28;20220;-66
2022/11/14 03:56:28;;;;;;;37.05;21.63;;;;;;;;;;5115508;28;20198;-66
2022/11/14 03:58:55;;;;;;;40.53;22.38;;;;;;;;;;5115342;28;20226;-65
2022/11/14 04:01:23;;;;;;;39.25;23.35;;;;;;;;;;5115578;28;20556;-65
2022/11/14 04:03:51;;;;;;;41.92;24.10;;;;;;;;;;5115292;27;20201;-66
2022/11/14 04:06:18;;;;;;;39.70;22.27;;;;;;;;;;5115485;28;20218;-65
2022/11/14 04:08:46;;;;;;;39.03;22.40;;;;;;;;;;5115203;28;20376;-66
2022/11/14 04:11:13;;;;;;;43.38;23.05;;;;;;;;;;5115118;28;20201;-66
2022/11/14 04:13:40;;;;;;;37.88;21.70;;;;;;;;;;5115009;28;20225;-65
2022/11/14 04:16:07;;;;;;;35.50;21.92;;;;;;;;;;5115115;28;20203;-65
2022/11/14 04:18:35;;;;;;;39.90;20.92;;;;;;;;;;5115337;28;20207;-66
2022/11/14 04:21:03;;;;;;;38.50;22.58;;;;;;;;;;5115282;28;20200;-65
2022/11/14 04:23:30;;;;;;;40.20;21.70;;;;;;;;;;5114950;28;20671;-65
2022/11/14 04:25:57;;;;;;;40.00;21.27;;;;;;;;;;5114946;28;20551;-65
2022/11/14 04:28:25;;;;;;;33.10;21.63;;;;;;;;;;5115068;28;20282;-65
2022/11/14 04:30:52;;;;;;;41.00;22.90;;;;;;;;;;5115206;28;20196;-65
2022/11/14 04:33:19;;;;;;;40.65;20.45;;;;;;;;;;5114783;28;20200;-65
2022/11/14 04:35:46;;;;;;;42.63;23.25;;;;;;;;;;5115306;28;20206;-65
2022/11/14 04:38:15;;;;;;;40.65;21.55;;;;;;;;;;5113868;28;20670;-65
2022/11/14 04:40:48;;;;;;;40.08;23.50;;;;;;;;;;5115200;28;20190;-66
2022/11/14 04:43:15;;;;;;;37.30;22.25;;;;;;;;;;5114885;28;20229;-65
2022/11/14 04:45:42;;;;;;;41.65;23.08;;;;;;;;;;5114766;28;20198;-65
2022/11/14 04:48:10;;;;;;;42.65;22.20;;;;;;;;;;5114169;28;20206;-65
2022/11/14 04:50:37;;;;;;;38.65;22.77;;;;;;;;;;5114474;28;20198;-65
2022/11/14 04:53:04;;;;;;;42.28;23.08;;;;;;;;;;5112941;28;20187;-66
2022/11/14 04:55:33;;;;;;;35.10;21.30;;;;;;;;;;5113199;28;20348;-65
2022/11/14 04:58:01;;;;;;;36.80;21.17;;;;;;;;;;5113378;28;20194;-66
2022/11/14 05:00:28;;;;;;;39.97;23.15;;;;;;;;;;5112931;28;20195;-65
2022/11/14 05:02:55;;;;;;;41.20;21.35;;;;;;;;;;5113485;28;20194;-66
2022/11/14 05:05:23;;;;;;;31.98;22.00;;;;;;;;;;5113431;28;20204;-65
2022/11/14 05:07:50;;;;;;;41.13;23.73;;;;;;;;;;5112988;28;20200;-65
2022/11/14 05:10:17;;;;;;;37.92;22.42;;;;;;;;;;5113588;28;20205;-65
2022/11/14 05:12:46;;;;;;;38.63;21.70;;;;;;;;;;5113671;28;20216;-65
2022/11/14 05:15:13;;;;;;;37.75;21.05;;;;;;;;;;5113612;28;20230;-65
2022/11/14 05:17:40;;;;;;;37.88;22.05;;;;;;;;;;5113818;28;20285;-65
2022/11/14 05:20:08;;;;;;;44.22;22.27;;;;;;;;;;5113135;28;20197;-65
2022/11/14 05:22:35;;;;;;;44.05;23.77;;;;;;;;;;5113287;28;20188;-66
2022/11/14 05:25:02;;;;;;;40.58;22.63;;;;;;;;;;5113548;28;20203;-66
2022/11/14 05:27:29;;;;;;;39.63;22.80;;;;;;;;;;5113444;28;20284;-67
2022/11/14 05:29:58;;;;;;;40.30;21.27;;;;;;;;;;5113600;28;20195;-66
2022/11/14 05:32:25;;;;;;;40.50;23.05;;;;;;;;;;5113877;28;20199;-66
2022/11/14 05:34:52;;;;;;;39.95;24.02;;;;;;;;;;5113730;28;20224;-66
2022/11/14 05:37:20;;;;;;;39.58;22.50;;;;;;;;;;5113559;28;20695;-67
2022/11/14 05:39:47;;;;;;;35.85;22.13;;;;;;;;;;5113853;28;20204;-67
2022/11/14 05:42:14;;;;;;;40.55;23.08;;;;;;;;;;5113858;28;20224;-67
2022/11/14 05:44:41;;;;;;;39.42;22.95;;;;;;;;;;5113737;28;20203;-66
2022/11/14 05:47:10;;;;;;;38.03;22.65;;;;;;;;;;5112956;28;20195;-67
2022/11/14 05:49:37;;;;;;;34.08;21.20;;;;;;;;;;5114754;28;20205;-66
2022/11/14 05:52:04;;;;;;;42.03;23.10;;;;;;;;;;5118166;28;20204;-67
2022/11/14 05:54:31;;;;;;;36.20;20.90;;;;;;;;;;5117379;28;20213;-66
2022/11/14 05:56:59;;;;;;;31.95;21.45;;;;;;;;;;5117797;28;20195;-66
2022/11/14 05:59:26;;;;;;;32.17;20.42;;;;;;;;;;5117721;28;20216;-67
2022/11/14 06:01:53;;;;;;;33.30;20.73;;;;;;;;;;5117966;28;20211;-67
2022/11/14 06:04:22;;;;;;;36.45;22.90;;;;;;;;;;5117155;28;20293;-67
2022/11/14 06:06:49;;;;;;;33.58;21.75;;;;;;;;;;5117223;28;20200;-66
2022/11/14 06:09:16;;;;;;;34.13;22.27;;;;;;;;;;5116930;28;20256;-67
2022/11/14 06:11:43;;;;;;;28.90;20.52;;;;;;;;;;5117267;28;20194;-67
2022/11/14 06:14:10;;;;;;;32.03;21.95;;;;;;;;;;5117270;28;20196;-72
2022/11/14 06:16:38;;;;;;;34.67;22.00;;;;;;;;;;5117111;28;20644;-66
2022/11/14 06:19:05;;;;;;;33.92;21.10;;;;;;;;;;5117408;28;20280;-67
2022/11/14 06:21:33;;;;;;;33.40;21.05;;;;;;;;;;5117300;28;20201;-66
2022/11/14 06:24:06;;;;;;;34.70;20.85;;;;;;;;;;5117348;28;20195;-66
2022/11/14 06:26:33;;;;;;;33.20;20.48;;;;;;;;;;5116989;28;20556;-67
2022/11/14 06:29:01;;;;;;;34.88;22.90;;;;;;;;;;5117351;28;20216;-67
2022/11/14 06:31:28;;;;;;;39.83;23.65;;;;;;;;;;5117195;28;20189;-66
2022/11/14 06:33:55;;;;;;;34.78;20.75;;;;;;;;;;5116866;28;20199;-67
2022/11/14 06:36:23;;;;;;;40.53;22.65;;;;;;;;;;5117091;28;20197;-66
2022/11/14 06:38:51;;;;;;;41.85;25.17;;;;;;;;;;5117123;28;20282;-66
2022/11/14 06:41:20;;;;;;;34.78;21.08;;;;;;;;;;5116891;28;20636;-66
2022/11/14 06:43:48;;;;;;;36.35;21.83;;;;;;;;;;5116322;28;20694;-66
2022/11/14 06:46:16;;;;;;;36.67;20.88;;;;;;;;;;5115351;28;20193;-65
2022/11/14 06:48:44;;;;;;;33.65;21.27;;;;;;;;;;5115363;28;20551;-66
2022/11/14 06:51:12;;;;;;;34.17;21.55;;;;;;;;;;5115414;28;20205;-66
2022/11/14 06:53:39;;;;;;;34.70;20.80;;;;;;;;;;5115247;28;20677;-66
2022/11/14 06:56:09;;;;;;;36.42;21.65;;;;;;;;;;5115765;28;20234;-67
2022/11/14 06:58:38;;;;;;;36.28;23.15;;;;;;;;;;5115532;28;20282;-66
2022/11/14 07:01:06;;;;;;;34.72;22.48;;;;;;;;;;5114611;28;20194;-66
2022/11/14 07:03:33;;;;;;;36.03;22.05;;;;;;;;;;5115024;28;20279;-66
2022/11/14 07:06:01;;;;;;;41.05;22.35;;;;;;;;;;5115289;28;20289;-67
2022/11/14 07:08:28;;;;;;;35.55;23.08;;;;;;;;;;5115893;28;20200;-67
2022/11/14 07:10:55;;;;;;;40.97;21.83;;;;;;;;;;5115006;28;20301;-66
2022/11/14 07:13:23;;;;;;;40.80;22.90;;;;;;;;;;5115428;28;20194;-67
2022/11/14 07:15:51;;;;;;;38.90;21.35;;;;;;;;;;5114902;28;20676;-66
2022/11/14 07:18:19;;;;;;;34.80;23.33;;;;;;;;;;5115179;28;20192;-66
2022/11/14 07:20:46;;;;;;;34.95;21.52;;;;;;;;;;5115077;28;20225;-66
2022/11/14 07:23:14;;;;;;;32.15;20.65;;;;;;;;;;5115351;28;20195;-66
2022/11/14 07:25:41;;;;;;;34.72;21.70;;;;;;;;;;5115584;28;20204;-66
2022/11/14 07:28:08;;;;;;;33.67;20.42;;;;;;;;;;5115242;28;20199;-66
2022/11/14 07:30:37;;;;;;;33.25;20.92;;;;;;;;;;5114915;28;20204;-66
2022/11/14 07:33:04;;;;;;;32.63;21.13;;;;;;;;;;5114474;28;20235;-66
2022/11/14 07:35:31;;;;;;;35.63;20.10;;;;;;;;;;5114310;28;20213;-67
2022/11/14 07:38:02;;;;;;;35.17;23.00;;;;;;;;;;5115383;28;20550;-66
2022/11/14 07:40:29;;;;;;;32.92;21.45;;;;;;;;;;5114635;28;20200;-66
2022/11/14 07:42:59;;;;;;;30.60;20.33;;;;;;;;;;5076917;28;1080983;-66
2022/11/14 07:45:26;;;;;;;33.75;21.48;;;;;;;;;;5115872;28;20202;-66
2022/11/14 07:47:56;;;;;;;31.95;21.05;;;;;;;;;;5115387;28;20202;-66
2022/11/14 07:50:24;;;;;;;33.63;21.20;;;;;;;;;;5115249;28;20199;-66
2022/11/14 07:52:51;;;;;;;26.60;19.33;;;;;;;;;;5115479;28;20192;-66
2022/11/14 07:55:18;;;;;;;35.58;21.48;;;;;;;;;;5114981;28;20310;-66
2022/11/14 07:57:50;;;;;;;32.10;19.40;;;;;;;;;;5115354;28;20196;-66
2022/11/14 08:00:18;;;;;;;25.98;18.10;;;;;;;;;;5115542;28;20614;-66
2022/11/14 08:02:46;;;;;;;31.02;18.88;;;;;;;;;;5115261;28;20200;-66
2022/11/14 08:05:15;;;;;;;31.05;19.80;;;;;;;;;;5115118;28;20300;-66
2022/11/14 08:07:42;;;;;;;28.45;19.35;;;;;;;;;;5114966;28;20644;-66
2022/11/14 08:10:10;;;;;;;30.20;18.67;;;;;;;;;;5115224;28;20226;-66
2022/11/14 08:12:38;;;;;;;27.52;17.85;;;;;;;;;;5113886;28;20194;-67
2022/11/14 08:15:06;;;;;;;29.08;18.80;;;;;;;;;;5115166;28;20602;-67
2022/11/14 08:17:33;;;;;;;33.78;18.35;;;;;;;;;;5115351;28;20200;-66
2022/11/14 08:20:00;;;;;;;27.65;17.30;;;;;;;;;;5115178;28;20198;-66
2022/11/14 08:22:29;;;;;;;25.58;17.35;;;;;;;;;;5114651;28;20204;-68
2022/11/14 08:24:57;;;;;;;25.67;17.67;;;;;;;;;;5115376;28;20620;-66
2022/11/14 08:27:24;;;;;;;25.17;17.88;;;;;;;;;;5114966;28;20530;-66
2022/11/14 08:29:51;;;;;;;28.15;17.35;;;;;;;;;;5114893;28;20548;-66
2022/11/14 08:32:18;;;;;;;23.48;16.58;;;;;;;;;;5114401;28;20203;-66
2022/11/14 08:34:46;;;;;;;29.42;18.52;;;;;;;;;;5115347;28;20214;-67
2022/11/14 08:37:13;;;;;;;23.20;17.55;;;;;;;;;;5114712;28;20198;-66
2022/11/14 08:39:41;;;;;;;26.95;19.33;;;;;;;;;;5114710;28;20196;-66
2022/11/14 08:42:08;;;;;;;32.10;18.00;;;;;;;;;;5114433;28;20571;-66
2022/11/14 08:44:36;;;;;;;27.63;19.35;;;;;;;;;;5114799;28;20225;-66
2022/11/14 08:47:03;;;;;;;26.77;17.67;;;;;;;;;;5114767;28;20209;-66
2022/11/14 08:49:30;;;;;;;25.42;17.55;;;;;;;;;;5114282;28;20195;-66
2022/11/14 08:51:57;;;;;;;29.10;16.77;;;;;;;;;;5114378;28;20561;-66
2022/11/14 08:54:24;;;;;;;27.55;17.58;;;;;;;;;;5114731;28;20198;-66
2022/11/14 08:56:53;;;;;;;27.13;17.27;;;;;;;;;;5113947;28;20223;-67
2022/11/14 08:59:20;;;;;;;28.40;16.95;;;;;;;;;;5114171;28;20218;-66
2022/11/14 09:01:47;;;;;;;28.55;18.42;;;;;;;;;;5114366;28;20204;-67
2022/11/14 09:04:15;;;;;;;25.63;16.67;;;;;;;;;;5113769;28;20234;-67
2022/11/14 09:06:42;;;;;;;27.38;18.42;;;;;;;;;;5113743;28;20289;-66
2022/11/14 09:09:09;;;;;;;29.08;17.90;;;;;;;;;;5113429;28;20199;-66
2022/11/14 09:11:36;;;;;;;25.95;16.55;;;;;;;;;;5114086;28;20282;-66
2022/11/14 09:14:05;;;;;;;23.15;16.30;;;;;;;;;;5114180;28;20569;-66
2022/11/14 09:16:32;;;;;;;31.63;17.25;;;;;;;;;;5114008;28;20221;-66
2022/11/14 09:19:00;;;;;;;23.75;16.20;;;;;;;;;;5114328;28;20196;-66
2022/11/14 09:21:27;;;;;;;25.55;16.58;;;;;;;;;;5114274;28;20286;-67
2022/11/14 09:23:54;;;;;;;28.23;17.27;;;;;;;;;;5113506;28;20661;-66
2022/11/14 09:26:22;;;;;;;31.13;16.55;;;;;;;;;;5114311;28;20576;-66
2022/11/14 09:28:49;;;;;;;28.10;17.48;;;;;;;;;;5113972;28;20198;-66
2022/11/14 09:31:18;;;;;;;22.63;15.60;;;;;;;;;;5113898;28;20204;-66
2022/11/14 09:33:45;;;;;;;28.23;17.45;;;;;;;;;;5113489;28;20192;-66
2022/11/14 09:36:14;;;;;;;33.80;19.92;;;;;;;;;;5114057;28;20305;-66
2022/11/14 09:38:42;;;;;;;23.65;18.10;;;;;;;;;;5113543;28;20204;-66
2022/11/14 09:41:23;;;;;;;23.83;16.35;;;;;;;;;;5113422;28;20251;-66
2022/11/14 09:44:08;;;;;;;22.48;16.50;;;;;;;;;;5114048;28;20223;-66
2022/11/14 09:46:41;;;;;;;24.73;15.80;;;;;;;;;;5114162;28;20196;-67
2022/11/14 09:49:12;;;;;;;22.42;15.88;;;;;;;;;;5113801;28;20298;-66
2022/11/14 09:51:44;;;;;;;24.30;17.17;;;;;;;;;;5113783;28;20196;-66
2022/11/14 09:54:17;;;;;;;23.90;15.95;;;;;;;;;;5113628;28;20188;-67
2022/11/14 09:56:44;;;;;;;23.73;15.60;;;;;;;;;;5113381;28;20212;-67
2022/11/14 09:59:11;;;;;;;21.88;15.80;;;;;;;;;;5113702;28;20194;-68
2022/11/14 10:01:45;;;;;;;24.13;15.80;;;;;;;;;;5113769;28;20190;-67
2022/11/14 10:04:16;;;;;;;23.25;16.90;;;;;;;;;;5113594;28;20218;-66
2022/11/14 10:06:47;;;;;;;29.98;17.05;;;;;;;;;;5113422;28;20191;-66
2022/11/14 10:09:32;;;;;;;19.88;15.20;;;;;;;;;;5113786;28;20273;-66
2022/11/14 10:12:03;;;;;;;21.17;15.93;;;;;;;;;;5103162;28;20189;-66
2022/11/14 10:14:39;;;;;;;19.50;14.95;;;;;;;;;;5113471;28;20184;-66
2022/11/14 10:17:14;;;;;;;19.10;15.55;;;;;;;;;;5113838;28;20312;-67
2022/11/14 10:19:43;;;;;;;22.70;16.25;;;;;;;;;;5113181;28;20191;-67
2022/11/14 10:22:16;;;;;;;21.45;15.77;;;;;;;;;;5113388;28;20198;-68
2022/11/14 10:24:58;;;;;;;22.98;16.17;;;;;;;;;;5113484;28;20594;-67
2022/11/14 10:27:27;;;;;;;22.50;16.05;;;;;;;;;;5111368;28;20204;-67
2022/11/14 10:30:03;;;;;;;25.80;17.75;;;;;;;;;;5113022;28;20631;-67
2022/11/14 10:32:39;;;;;;;19.50;15.00;;;;;;;;;;5113360;28;20188;-67
2022/11/14 10:35:11;;;;;;;23.45;17.05;;;;;;;;;;5114108;28;20188;-67
2022/11/14 10:37:42;;;;;;;25.90;16.00;;;;;;;;;;5117035;28;20189;-67
2022/11/14 10:40:15;;;;;;;21.67;16.48;;;;;;;;;;5116744;28;20203;-66
2022/11/14 10:42:45;;;;;;;35.60;15.48;;;;;;;;;;5117096;28;20674;-67
2022/11/14 10:45:17;;;;;;;18.85;15.32;;;;;;;;;;5117250;28;20563;-67
2022/11/14 10:47:48;;;;;;;19.85;15.18;;;;;;;;;;5117424;28;20539;-66
2022/11/14 10:50:19;;;;;;;23.92;17.20;;;;;;;;;;5117005;27;20186;-66
2022/11/14 10:52:46;;;;;;;20.90;16.42;;;;;;;;;;5117001;28;20191;-66
2022/11/14 10:55:14;;;;;;;19.45;15.82;;;;;;;;;;5116638;28;20631;-66
2022/11/14 10:57:42;;;;;;;21.27;14.73;;;;;;;;;;5117059;28;20560;-66
2022/11/14 11:00:12;;;;;;;20.98;15.82;;;;;;;;;;5116593;28;20558;-66
2022/11/14 11:02:50;;;;;;;18.75;15.55;;;;;;;;;;5116316;28;20192;-67
2022/11/14 11:05:19;;;;;;;19.25;15.55;;;;;;;;;;5116199;28;20203;-66
2022/11/14 11:13:30;;;;;;;17.48;14.00;;;;;;;;;;5116314;28;20240;-67
2022/11/14 11:15:58;;;;;;;16.10;13.30;;;;;;;;;;5116661;28;20208;-66
2022/11/14 11:18:28;;;;;;;19.55;15.32;;;;;;;;;;5115990;28;20201;-66
2022/11/14 11:21:03;;;;;;;17.75;14.70;;;;;;;;;;5116085;28;20184;-66
2022/11/14 11:23:30;;;;;;;19.52;15.10;;;;;;;;;;5116144;28;20194;-66
2022/11/14 11:26:00;;;;;;;23.70;15.38;;;;;;;;;;5115923;28;20207;-67
2022/11/14 11:28:29;;;;;;;19.58;14.13;;;;;;;;;;5116000;28;20193;-67
2022/11/14 11:30:57;;;;;;;19.73;14.65;;;;;;;;;;5116147;28;20198;-66
2022/11/14 11:33:25;;;;;;;21.80;15.10;;;;;;;;;;5115651;28;20198;-66
2022/11/14 11:35:55;;;;;;;15.52;13.25;;;;;;;;;;5116402;28;20315;-66
2022/11/14 11:38:22;;;;;;;25.58;14.73;;;;;;;;;;5116209;28;20193;-67
2022/11/14 11:40:51;;;;;;;19.15;14.57;;;;;;;;;;5115437;28;20196;-66
2022/11/14 11:43:24;;;;;;;20.30;14.70;;;;;;;;;;5115378;28;20573;-66
2022/11/14 11:45:51;;;;;;;19.75;14.23;;;;;;;;;;5115333;28;20705;-66
2022/11/14 11:48:20;;;;;;;20.38;14.82;;;;;;;;;;5114614;28;20193;-66
2022/11/14 11:50:47;;;;;;;18.67;14.20;;;;;;;;;;5115295;28;20295;-66
2022/11/14 11:53:19;;;;;;;20.13;15.10;;;;;;;;;;5115570;28;20222;-67
2022/11/14 11:55:48;;;;;;;26.10;19.38;;;;;;;;;;5115649;28;20188;-66
2022/11/14 11:58:20;;;;;;;24.60;15.20;;;;;;;;;;5115293;28;20251;-67
2022/11/14 12:00:47;;;;;;;25.38;14.25;;;;;;;;;;5115572;28;20441;-66
2022/11/14 12:03:15;;;;;;;17.80;14.27;;;;;;;;;;5115124;28;20744;-66
2022/11/14 12:05:47;;;;;;;16.87;12.53;;;;;;;;;;5115293;28;20474;-66
2022/11/14 12:08:20;;;;;;;20.42;14.10;;;;;;;;;;5115512;28;20531;-66
2022/11/14 12:10:49;;;;;;;26.40;14.60;;;;;;;;;;5115263;28;20657;-66
2022/11/14 12:13:35;;;;;;;18.37;14.00;;;;;;;;;;5115191;28;20546;-67
2022/11/14 12:16:07;;;;;;;16.37;13.03;;;;;;;;;;5115126;28;20474;-67
2022/11/14 12:18:44;;;;;;;12.80;10.75;;;;;;;;;;5115158;28;20426;-66
2022/11/14 12:21:22;;;;;;;15.93;12.60;;;;;;;;;;5115041;28;20288;-66
2022/11/14 12:24:16;;;;;;;16.45;12.88;;;;;;;;;;5115283;28;20180;-66
2022/11/14 12:26:58;;;;;;;14.47;11.47;;;;;;;;;;5115145;28;20189;-66
2022/11/14 12:29:35;;;;;;;14.20;11.02;;;;;;;;;;5115254;28;20438;-67
2022/11/14 12:32:04;;;;;;;12.90;11.52;;;;;;;;;;5115315;28;20541;-66
2022/11/14 12:34:32;;;;;;;15.73;11.00;;;;;;;;;;5114376;28;20291;-66
2022/11/14 12:37:00;;;;;;;12.97;10.90;;;;;;;;;;5115102;28;20568;-66
2022/11/14 12:39:28;;;;;;;11.63;10.03;;;;;;;;;;5114380;28;20537;-66
2022/11/14 12:42:03;;;;;;;13.10;10.25;;;;;;;;;;5114424;28;20470;-66
2022/11/14 12:44:34;;;;;;;13.03;10.80;;;;;;;;;;5114646;28;20551;-66
2022/11/14 12:47:16;;;;;;;18.77;15.40;;;;;;;;;;5114603;28;20442;-66
2022/11/14 12:50:05;;;;;;;12.77;10.83;;;;;;;;;;5112302;28;20451;-66
2022/11/14 12:52:47;;;;;;;13.03;10.20;;;;;;;;;;5115381;28;20434;-66
2022/11/14 12:55:33;;;;;;;16.03;11.30;;;;;;;;;;5114834;28;20426;-66
2022/11/14 12:58:04;;;;;;;12.53;10.33;;;;;;;;;;5114120;28;20488;-66
2022/11/14 13:00:33;;;;;;;15.53;11.10;;;;;;;;;;5114064;28;20431;-67
2022/11/14 13:03:09;;;;;;;15.70;11.30;;;;;;;;;;5114025;28;20949;-66
2022/11/14 13:05:46;;;;;;;27.47;11.20;;;;;;;;;;5113969;28;20436;-66
2022/11/14 13:08:22;;;;;;;30.07;11.70;;;;;;;;;;5114074;28;20503;-68
2022/11/14 13:10:49;;;;;;;18.33;12.00;;;;;;;;;;5114346;28;20434;-68
2022/11/14 13:22:16;;;;;;;14.43;11.13;;;;;;;;;;5113891;28;20480;-66
2022/11/14 13:25:01;;;;;;;14.03;10.30;;;;;;;;;;5114075;28;20537;-66
2022/11/14 13:27:29;;;;;;;13.37;10.03;;;;;;;;;;5114343;28;20456;-66
2022/11/14 13:29:58;;;;;;;13.30;9.53;;;;;;;;;;5114049;28;20442;-66
2022/11/14 13:32:44;;;;;;;22.17;11.93;;;;;;;;;;5113966;28;20931;-67
2022/11/14 13:35:14;;;;;;;14.20;10.03;;;;;;;;;;5113497;28;20447;-66
2022/11/14 13:37:47;;;;;;;17.07;11.20;;;;;;;;;;5114136;28;20563;-66
2022/11/14 13:40:17;;;;;;;14.77;10.93;;;;;;;;;;5114316;28;20433;-66
2022/11/14 13:42:49;;;;;;;14.63;12.20;;;;;;;;;;5113513;28;20474;-66
2022/11/14 13:45:24;;;;;;;12.80;10.47;;;;;;;;;;5114190;28;20436;-67
2022/11/14 13:48:13;;;;;;;15.50;11.17;;;;;;;;;;5113963;28;20430;-66
2022/11/14 13:50:41;;;;;;;14.40;10.87;;;;;;;;;;5114260;28;20801;-67
2022/11/14 13:53:14;;;;;;;15.40;10.90;;;;;;;;;;5113533;28;20442;-68
2022/11/14 13:55:49;;;;;;;15.17;11.00;;;;;;;;;;5113384;28;20442;-67
2022/11/14 13:58:26;;;;;;;14.80;11.70;;;;;;;;;;5114157;28;20553;-65
2022/11/14 14:01:03;;;;;;;14.03;9.47;;;;;;;;;;5113584;28;20492;-66
2022/11/14 14:03:37;;;;;;;12.33;10.30;;;;;;;;;;5114003;28;20433;-66
2022/11/14 14:06:11;;;;;;;14.00;11.27;;;;;;;;;;5113884;28;20825;-66
2022/11/14 14:08:46;;;;;;;13.07;10.13;;;;;;;;;;5114031;28;20438;-66
2022/11/14 14:11:24;;;;;;;27.00;17.13;;;;;;;;;;5116156;28;20445;-66
2022/11/14 14:13:57;;;;;;;14.03;11.30;;;;;;;;;;5117996;28;20513;-66
2022/11/14 14:16:32;;;;;;;19.23;11.77;;;;;;;;;;5117814;28;20518;-66
2022/11/14 14:19:02;;;;;;;17.70;11.00;;;;;;;;;;5117489;28;20426;-65
2022/11/14 14:21:34;;;;;;;13.87;10.60;;;;;;;;;;5116366;28;20447;-65
2022/11/14 14:24:05;;;;;;;15.23;11.43;;;;;;;;;;5116681;28;20429;-66
2022/11/14 14:26:36;;;;;;;11.67;9.70;;;;;;;;;;5116828;28;20548;-66
2022/11/14 14:29:10;;;;;;;14.17;10.80;;;;;;;;;;5116954;28;20430;-65
2022/11/14 14:31:39;;;;;;;17.70;14.07;;;;;;;;;;5116642;28;20450;-65
2022/11/14 14:34:21;;;;;;;19.53;12.70;;;;;;;;;;5116834;28;20439;-65
2022/11/14 14:36:52;;;;;;;16.00;11.30;;;;;;;;;;5116263;28;20475;-65
2022/11/14 14:39:20;;;;;;;13.50;12.10;;;;;;;;;;5116723;28;20999;-66
2022/11/14 14:41:47;;;;;;;19.77;12.30;;;;;;;;;;5115883;28;20516;-65